CheckWX is a tool to help pilots better visualize weather data.  It is not intended as a substitute for an official pre-flight weather briefing.

04:19:10 UTC

FASB METAR
Springbok Airport
Springbok, South Africa
Current

22 hours ago

FASB 170645Z 10005KT CAVOK 25/M04 Q1019
Observed
Feb-17 @ 06:45 UTC
Wind
  • 100° at 5 KTS
Visibility
10,000+ meters
Flight Rules
VFR
Cloud Levels
  • Clear skies
Temperature
25°C / 77°F
Dewpoint
-4°C / 25°F
Humidity
14%
Altimeter
30.09" Hg
Pressure
1018.92 hPa
Previous

22 hours ago

FASB 170553Z 12003KT CAVOK 23/M02 Q1019
Observed
Feb-17 @ 05:53 UTC
Wind
  • 120° at 3 KTS
Visibility
10,000+ meters
Flight Rules
VFR
Cloud Levels
  • Clear skies
Temperature
23°C / 73°F
Dewpoint
-2°C / 28°F
Humidity
19%
Altimeter
30.09" Hg
Pressure
1018.92 hPa